createdAt,value
2018-10-19T00:01:49.871Z,34.90
2018-10-19T00:04:18.774Z,36.53
2018-10-19T00:06:47.576Z,33.87
2018-10-19T00:09:16.554Z,34.57
2018-10-19T00:11:45.192Z,34.97
2018-10-19T00:14:13.988Z,35.90
2018-10-19T00:16:42.814Z,35.83
2018-10-19T00:19:11.663Z,36.40
2018-10-19T00:21:40.468Z,33.57
2018-10-19T00:24:09.337Z,34.43
2018-10-19T00:26:38.138Z,38.53
2018-10-19T00:29:06.992Z,37.70
2018-10-19T00:31:35.736Z,38.40
2018-10-19T00:34:04.712Z,36.20
2018-10-19T00:36:33.601Z,41.10
2018-10-19T00:39:02.495Z,38.17
2018-10-19T00:41:31.239Z,36.47
2018-10-19T00:44:00.132Z,38.10
2018-10-19T00:46:28.966Z,36.20
2018-10-19T00:48:57.766Z,37.43
2018-10-19T00:51:26.591Z,40.33
2018-10-19T00:53:55.415Z,40.97
2018-10-19T00:56:24.240Z,36.13
2018-10-19T00:58:53.070Z,36.90
2018-10-19T01:01:21.928Z,38.20
2018-10-19T01:03:50.736Z,41.17
2018-10-19T01:06:19.620Z,37.93
2018-10-19T01:08:48.515Z,38.77
2018-10-19T01:11:17.387Z,37.87
2018-10-19T01:13:46.380Z,40.20
2018-10-19T01:16:15.224Z,37.00
2018-10-19T01:18:44.036Z,42.50
2018-10-19T01:21:13.146Z,40.10
2018-10-19T01:23:41.971Z,39.33
2018-10-19T01:26:10.797Z,42.97
2018-10-19T01:28:39.690Z,40.63
2018-10-19T01:31:08.523Z,40.27
2018-10-19T01:33:37.440Z,44.83
2018-10-19T01:36:06.780Z,41.43
2018-10-19T01:38:35.713Z,42.13
2018-10-19T01:41:04.565Z,42.97
2018-10-19T01:43:33.347Z,42.97
2018-10-19T01:46:02.208Z,44.30
2018-10-19T01:48:31.056Z,44.20
2018-10-19T01:50:59.885Z,42.43
2018-10-19T01:53:28.772Z,42.67
2018-10-19T01:55:57.602Z,51.07
2018-10-19T01:58:26.406Z,41.90
2018-10-19T02:00:55.244Z,42.70
2018-10-19T02:03:24.012Z,44.77
2018-10-19T02:05:52.840Z,46.23
2018-10-19T02:08:21.632Z,45.13
2018-10-19T02:10:50.434Z,42.67
2018-10-19T02:13:19.248Z,46.30
2018-10-19T02:15:48.060Z,45.03
2018-10-19T02:18:16.848Z,45.73
2018-10-19T02:20:45.672Z,43.97
2018-10-19T02:23:14.626Z,47.97
2018-10-19T02:25:43.410Z,44.17
2018-10-19T02:28:12.227Z,45.80
2018-10-19T02:30:41.037Z,48.13
2018-10-19T02:33:09.855Z,44.47
2018-10-19T02:35:38.641Z,50.57
2018-10-19T02:38:07.444Z,46.23
2018-10-19T02:40:36.256Z,46.90
2018-10-19T02:43:05.532Z,50.67
2018-10-19T02:45:35.037Z,49.30
2018-10-19T02:48:04.313Z,50.93
2018-10-19T02:50:33.131Z,49.20
2018-10-19T02:53:02.010Z,44.93
2018-10-19T02:55:30.791Z,45.23
2018-10-19T02:57:59.567Z,51.70
2018-10-19T03:00:28.383Z,45.40
2018-10-19T03:02:57.215Z,50.00
2018-10-19T03:05:26.026Z,52.93
2018-10-19T03:07:54.797Z,50.50
2018-10-19T03:10:23.608Z,50.17
2018-10-19T03:12:52.428Z,51.70
2018-10-19T03:15:21.233Z,48.77
2018-10-19T03:17:50.040Z,52.10
2018-10-19T03:20:18.815Z,52.77
2018-10-19T03:22:47.603Z,56.47
2018-10-19T03:25:16.405Z,54.07
2018-10-19T03:27:45.199Z,55.30
2018-10-19T03:30:13.992Z,56.27
2018-10-19T03:32:42.858Z,54.57
2018-10-19T03:35:11.787Z,54.77
2018-10-19T03:37:40.532Z,53.97
2018-10-19T03:40:09.347Z,54.33
2018-10-19T03:42:38.171Z,54.73
2018-10-19T03:45:07.339Z,58.20
2018-10-19T03:47:36.163Z,51.13
2018-10-19T03:50:05.226Z,52.73
2018-10-19T03:52:34.047Z,55.37
2018-10-19T03:55:02.838Z,53.67
2018-10-19T03:57:31.723Z,55.27
2018-10-19T04:00:00.503Z,58.03
2018-10-19T04:02:29.319Z,57.73
2018-10-19T04:04:58.171Z,62.33
2018-10-19T04:07:26.984Z,63.73
2018-10-19T04:09:55.764Z,60.83
2018-10-19T04:12:24.624Z,63.07
2018-10-19T04:14:53.489Z,58.90
2018-10-19T04:17:22.324Z,58.47
2018-10-19T04:19:51.128Z,58.67
2018-10-19T04:22:19.956Z,60.27
2018-10-19T04:24:48.748Z,60.57
2018-10-19T04:27:17.679Z,57.03
2018-10-19T04:29:46.395Z,60.87
2018-10-19T04:32:15.281Z,59.53
2018-10-19T04:34:44.197Z,58.90
2018-10-19T04:37:12.997Z,56.70
2018-10-19T04:39:41.796Z,57.97
2018-10-19T04:42:10.666Z,59.47
2018-10-19T04:44:39.452Z,57.13
2018-10-19T04:47:08.314Z,57.53
2018-10-19T04:49:37.528Z,58.57
2018-10-19T04:52:06.375Z,54.90
2018-10-19T04:54:35.199Z,58.23
2018-10-19T04:57:04.062Z,59.20
2018-10-19T04:59:32.816Z,61.97
2018-10-19T05:02:01.654Z,61.40
2018-10-19T05:04:30.468Z,58.07
2018-10-19T05:06:59.264Z,62.07
2018-10-19T05:09:28.063Z,60.20
2018-10-19T05:11:56.865Z,61.57
2018-10-19T05:14:25.637Z,61.50
2018-10-19T05:16:54.516Z,64.93
2018-10-19T05:19:23.244Z,62.00
2018-10-19T05:21:52.059Z,63.43
2018-10-19T05:24:20.872Z,70.70
2018-10-19T05:26:49.688Z,69.90
2018-10-19T05:29:18.501Z,69.80
2018-10-19T05:31:47.308Z,70.07
2018-10-19T05:34:16.416Z,74.50
2018-10-19T05:36:45.355Z,72.97
2018-10-19T05:39:14.165Z,80.90
2018-10-19T05:41:42.991Z,74.40
2018-10-19T05:44:11.831Z,75.50
2018-10-19T05:46:40.584Z,68.80
2018-10-19T05:49:09.389Z,75.83
2018-10-19T05:51:38.223Z,64.43
2018-10-19T05:54:07.092Z,64.87
2018-10-19T05:56:35.907Z,67.93
2018-10-19T05:59:04.721Z,68.77
2018-10-19T06:01:33.528Z,63.70
2018-10-19T06:04:02.316Z,70.00
2018-10-19T06:06:31.112Z,67.13
2018-10-19T06:08:59.897Z,67.03
2018-10-19T06:11:28.740Z,74.00
2018-10-19T06:13:57.537Z,74.83
2018-10-19T06:16:26.357Z,72.20
2018-10-19T06:18:55.184Z,74.20
2018-10-19T06:21:24.015Z,72.00
2018-10-19T06:23:52.809Z,74.93
2018-10-19T06:26:21.744Z,75.53
2018-10-19T06:28:50.484Z,69.97
2018-10-19T06:31:19.359Z,71.80
2018-10-19T06:33:48.245Z,66.67
2018-10-19T06:36:17.027Z,68.33
2018-10-19T06:38:46.071Z,77.23
2018-10-19T06:41:14.907Z,75.67
2018-10-19T06:43:43.671Z,71.97
2018-10-19T06:46:12.499Z,70.17
2018-10-19T06:48:41.299Z,71.37
2018-10-19T06:51:10.139Z,71.07
2018-10-19T06:53:38.948Z,67.67
2018-10-19T06:56:07.816Z,70.10
2018-10-19T06:58:36.589Z,77.43
2018-10-19T07:01:05.719Z,73.47
2018-10-19T07:03:34.523Z,69.97
2018-10-19T07:06:03.475Z,76.37
2018-10-19T07:08:32.172Z,73.37
2018-10-19T07:11:01.374Z,73.23
2018-10-19T07:13:30.101Z,78.00
2018-10-19T07:15:58.999Z,81.97
2018-10-19T07:18:27.736Z,74.87
2018-10-19T07:20:56.543Z,82.50
2018-10-19T07:23:25.412Z,77.87
2018-10-19T07:25:54.217Z,83.40
2018-10-19T07:28:22.989Z,84.50
2018-10-19T07:30:51.789Z,80.23
2018-10-19T07:33:20.583Z,81.17
2018-10-19T07:35:49.451Z,78.03
2018-10-19T07:38:18.291Z,76.43
2018-10-19T07:40:47.104Z,77.07
2018-10-19T07:43:15.912Z,79.30
2018-10-19T07:45:44.719Z,76.23
2018-10-19T07:48:13.598Z,87.00
2018-10-19T07:50:42.348Z,86.70
2018-10-19T07:53:11.197Z,76.00
2018-10-19T07:55:39.985Z,76.27
2018-10-19T07:58:08.896Z,74.33
2018-10-19T08:00:37.740Z,69.93
2018-10-19T08:03:06.549Z,71.67
2018-10-19T08:05:35.374Z,67.13
2018-10-19T08:08:04.452Z,74.83
2018-10-19T08:10:33.210Z,66.80
2018-10-19T08:13:02.023Z,75.60
2018-10-19T08:15:30.864Z,72.43
2018-10-19T08:17:59.760Z,70.10
2018-10-19T08:20:28.588Z,74.30
2018-10-19T08:22:57.385Z,73.47
2018-10-19T08:25:26.220Z,73.30
2018-10-19T08:27:55.092Z,70.77
2018-10-19T08:30:23.909Z,76.43
2018-10-19T08:32:52.692Z,71.10
2018-10-19T08:35:21.544Z,71.03
2018-10-19T08:37:50.339Z,72.67
2018-10-19T08:40:19.169Z,72.00
2018-10-19T08:42:47.956Z,70.37
2018-10-19T08:45:16.847Z,70.67
2018-10-19T08:47:45.687Z,66.40
2018-10-19T08:50:14.424Z,69.37
2018-10-19T08:52:43.221Z,67.83
2018-10-19T08:55:12.126Z,69.20
2018-10-19T08:57:40.926Z,65.10
2018-10-19T09:00:10.631Z,69.63
2018-10-19T09:02:39.407Z,68.10
2018-10-19T09:05:08.316Z,66.17
2018-10-19T09:07:37.127Z,62.63
2018-10-19T09:10:06.424Z,67.57
2018-10-19T09:12:35.261Z,68.93
2018-10-19T09:15:04.170Z,68.57
2018-10-19T09:17:32.977Z,70.37
2018-10-19T09:20:01.807Z,67.70
2018-10-19T09:22:30.760Z,67.33
2018-10-19T09:24:59.547Z,69.83
2018-10-19T09:27:28.421Z,74.67
2018-10-19T09:29:57.252Z,70.60
2018-10-19T09:32:26.087Z,72.40
2018-10-19T09:34:55.021Z,69.03
2018-10-19T09:37:23.793Z,70.00
2018-10-19T09:39:52.755Z,70.73
2018-10-19T09:42:21.566Z,60.03
2018-10-19T09:44:50.371Z,64.30
2018-10-19T09:47:19.180Z,63.90
2018-10-19T09:49:47.992Z,61.13
2018-10-19T09:52:16.797Z,69.10
2018-10-19T09:54:45.612Z,65.87
2018-10-19T09:57:14.572Z,66.37
2018-10-19T09:59:43.348Z,71.07
2018-10-19T10:02:12.198Z,66.30
2018-10-19T10:04:41.025Z,66.50
2018-10-19T10:07:09.906Z,67.93
2018-10-19T10:09:38.626Z,66.60
2018-10-19T10:12:07.432Z,75.00
2018-10-19T10:14:36.254Z,77.87
2018-10-19T10:17:05.251Z,80.40
2018-10-19T10:19:34.028Z,79.30
2018-10-19T10:22:02.906Z,82.47
2018-10-19T10:24:31.647Z,76.10
2018-10-19T10:27:00.522Z,78.03
2018-10-19T10:29:29.452Z,74.23
2018-10-19T10:31:58.298Z,72.80
2018-10-19T10:34:27.136Z,75.13
2018-10-19T10:36:55.966Z,73.97
2018-10-19T10:39:24.808Z,73.90
2018-10-19T10:41:53.611Z,73.53
2018-10-19T10:44:22.567Z,72.23
2018-10-19T10:46:51.510Z,71.23
2018-10-19T10:49:20.384Z,70.47
2018-10-19T10:51:49.225Z,71.40
2018-10-19T10:54:18.022Z,71.33
2018-10-19T10:56:46.844Z,69.33
2018-10-19T10:59:15.665Z,68.10
2018-10-19T11:01:44.490Z,71.07
2018-10-19T11:04:13.336Z,67.13
2018-10-19T11:06:42.130Z,70.00
2018-10-19T11:09:11.830Z,79.70
2018-10-19T11:11:40.676Z,67.07
2018-10-19T11:14:09.483Z,69.50
2018-10-19T11:16:38.315Z,65.43
2018-10-19T11:19:07.192Z,64.07
2018-10-19T11:21:35.949Z,67.53
2018-10-19T11:24:04.889Z,62.83
2018-10-19T11:26:33.660Z,64.50
2018-10-19T11:29:02.473Z,59.97
2018-10-19T11:31:31.305Z,63.67
2018-10-19T11:34:00.180Z,59.30
2018-10-19T11:36:28.913Z,66.77
2018-10-19T11:38:57.724Z,60.73
2018-10-19T11:41:26.545Z,63.00
2018-10-19T11:43:55.332Z,60.33
2018-10-19T11:46:24.155Z,59.70
2018-10-19T11:48:53.045Z,60.10
2018-10-19T11:51:21.802Z,62.63
2018-10-19T11:53:50.632Z,55.23
2018-10-19T11:56:19.468Z,57.10
2018-10-19T11:58:48.285Z,55.97
2018-10-19T12:01:17.091Z,58.23
2018-10-19T12:03:46.011Z,56.10
2018-10-19T12:06:14.799Z,54.43
2018-10-19T12:08:43.629Z,58.67
2018-10-19T12:11:12.438Z,51.90
2018-10-19T12:13:41.284Z,54.70
2018-10-19T12:16:10.196Z,56.90
2018-10-19T12:18:38.936Z,53.40
2018-10-19T12:21:07.958Z,54.40
2018-10-19T12:23:36.739Z,54.23
2018-10-19T12:26:05.729Z,55.07
2018-10-19T12:28:34.506Z,51.10
2018-10-19T12:31:03.372Z,52.10
2018-10-19T12:33:32.149Z,53.70
2018-10-19T12:36:00.939Z,52.53
2018-10-19T12:38:29.761Z,54.00
2018-10-19T12:40:58.646Z,56.60
2018-10-19T12:43:27.528Z,59.30
2018-10-19T12:46:37.067Z,54.50
2018-10-19T12:49:06.005Z,58.63
2018-10-19T12:51:35.260Z,62.90
2018-10-19T12:54:04.196Z,57.50
2018-10-19T12:56:33.043Z,55.13
2018-10-19T12:59:01.848Z,60.07
2018-10-19T13:01:31.188Z,54.40
2018-10-19T13:04:00.613Z,52.30
2018-10-19T13:06:29.445Z,55.13
2018-10-19T13:08:58.478Z,57.40
2018-10-19T13:11:27.320Z,53.30
2018-10-19T13:13:56.203Z,55.67
2018-10-19T13:16:25.092Z,54.80
2018-10-19T13:18:54.106Z,55.70
2018-10-19T13:21:22.899Z,59.77
2018-10-19T13:23:51.731Z,55.83
2018-10-19T13:26:21.037Z,53.57
2018-10-19T13:28:49.930Z,57.83
2018-10-19T13:31:19.797Z,55.00
2018-10-19T13:33:48.812Z,59.20
2018-10-19T13:36:17.583Z,63.43
2018-10-19T13:38:46.460Z,59.83
2018-10-19T13:41:15.381Z,59.00
2018-10-19T13:43:44.832Z,64.57
2018-10-19T13:46:13.684Z,61.40
2018-10-19T13:48:42.489Z,62.67
2018-10-19T13:51:11.571Z,70.47
2018-10-19T13:53:40.405Z,63.87
2018-10-19T13:56:09.198Z,61.50
2018-10-19T13:58:38.013Z,66.20
2018-10-19T14:01:07.344Z,64.20
2018-10-19T14:03:36.183Z,59.53
2018-10-19T14:06:05.255Z,59.60
2018-10-19T14:08:34.146Z,62.63
2018-10-19T14:11:03.018Z,64.03
2018-10-19T14:13:31.792Z,64.73
2018-10-19T14:16:00.615Z,63.07
2018-10-19T14:18:29.416Z,64.53
2018-10-19T14:20:58.251Z,64.30
2018-10-19T14:23:27.100Z,63.87
2018-10-19T14:25:56.095Z,61.70
2018-10-19T14:28:24.917Z,63.63
2018-10-19T14:30:54.281Z,65.23
2018-10-19T14:33:23.177Z,66.03
2018-10-19T14:35:51.862Z,60.00
2018-10-19T14:38:20.714Z,61.53
2018-10-19T14:40:49.516Z,60.43
2018-10-19T14:43:18.368Z,63.57
2018-10-19T14:45:47.161Z,64.50
2018-10-19T14:48:15.953Z,65.07
2018-10-19T14:50:44.773Z,63.43
2018-10-19T14:53:13.610Z,63.60
2018-10-19T14:55:42.408Z,65.30
2018-10-19T14:58:11.259Z,62.57
2018-10-19T15:00:40.057Z,63.40
2018-10-19T15:03:08.931Z,65.80
2018-10-19T15:05:37.724Z,63.73
2018-10-19T15:08:06.624Z,63.83
2018-10-19T15:10:35.794Z,65.17
2018-10-19T15:13:04.239Z,63.40
2018-10-19T15:15:33.069Z,64.00
2018-10-19T15:18:02.100Z,67.43
2018-10-19T15:20:30.819Z,66.23
2018-10-19T15:22:59.619Z,66.27
2018-10-19T15:25:28.560Z,68.33
2018-10-19T15:27:57.402Z,69.63
2018-10-19T15:30:26.221Z,65.70
2018-10-19T15:32:55.105Z,67.93
2018-10-19T15:35:24.152Z,74.50
2018-10-19T15:37:52.980Z,66.20
2018-10-19T15:40:21.800Z,69.97
2018-10-19T15:42:50.660Z,67.47
2018-10-19T15:45:19.528Z,71.93
2018-10-19T15:47:50.434Z,66.60
2018-10-19T15:50:19.335Z,70.60
2018-10-19T15:52:48.217Z,70.03
2018-10-19T15:55:17.013Z,69.93
2018-10-19T15:57:45.850Z,71.53
2018-10-19T16:00:14.716Z,67.13
2018-10-19T16:02:44.264Z,74.67
2018-10-19T16:05:13.080Z,69.53
2018-10-19T16:07:41.980Z,70.13
2018-10-19T16:10:10.838Z,67.83
2018-10-19T16:12:39.627Z,66.97
2018-10-19T16:15:09.604Z,75.77
2018-10-19T16:17:38.611Z,71.07
2018-10-19T16:20:08.657Z,69.50
2018-10-19T16:22:37.890Z,72.93
2018-10-19T16:25:07.536Z,70.93
2018-10-19T16:27:37.427Z,71.10
2018-10-19T16:30:07.310Z,71.83
2018-10-19T16:32:36.642Z,82.23
2018-10-19T16:35:05.533Z,105.57
2018-10-19T16:37:34.400Z,89.17
2018-10-19T16:40:03.267Z,84.90
2018-10-19T16:42:32.117Z,96.17
2018-10-19T16:45:00.949Z,159.37
2018-10-19T16:47:29.776Z,122.80
2018-10-19T16:49:58.623Z,100.67
2018-10-19T16:52:27.617Z,84.90
2018-10-19T16:54:56.308Z,84.70
2018-10-19T16:57:25.164Z,73.50
2018-10-19T16:59:54.065Z,72.13
2018-10-19T17:02:22.891Z,73.80
2018-10-19T17:04:51.784Z,69.30
2018-10-19T17:07:20.550Z,78.70
2018-10-19T17:09:49.335Z,70.07
2018-10-19T17:12:18.172Z,67.73
2018-10-19T17:14:47.009Z,66.10
2018-10-19T17:17:15.844Z,71.33
2018-10-19T17:19:44.684Z,78.37
2018-10-19T17:22:13.543Z,81.80
2018-10-19T17:24:42.346Z,89.73
2018-10-19T17:27:12.124Z,83.47
2018-10-19T17:29:40.837Z,82.90
2018-10-19T17:32:09.680Z,89.97
2018-10-19T17:34:38.487Z,85.67
2018-10-19T17:37:07.347Z,84.33
2018-10-19T17:39:36.145Z,85.23
2018-10-19T17:42:05.780Z,86.17
2018-10-19T17:44:34.559Z,88.53
2018-10-19T17:47:03.382Z,86.60
2018-10-19T17:49:32.215Z,81.23
2018-10-19T17:52:01.018Z,80.67
2018-10-19T17:54:29.907Z,77.73
2018-10-19T17:56:58.670Z,71.00
2018-10-19T17:59:27.510Z,76.47
2018-10-19T18:01:56.328Z,77.63
2018-10-19T18:04:25.170Z,84.17
2018-10-19T18:06:53.985Z,83.07
2018-10-19T18:09:22.827Z,85.13
2018-10-19T18:11:51.612Z,83.93
2018-10-19T18:14:20.431Z,79.20
2018-10-19T18:16:49.470Z,79.27
2018-10-19T18:19:18.255Z,84.20
2018-10-19T18:21:47.281Z,87.97
2018-10-19T18:24:15.910Z,84.00
2018-10-19T18:26:45.464Z,88.53
2018-10-19T18:29:14.320Z,83.83
2018-10-19T18:31:43.113Z,80.53
2018-10-19T18:34:11.932Z,82.47
2018-10-19T18:36:41.079Z,84.10
2018-10-19T18:39:11.952Z,86.73
2018-10-19T18:41:40.984Z,83.33
2018-10-19T18:44:09.826Z,80.13
2018-10-19T18:46:38.763Z,78.50
2018-10-19T18:49:08.132Z,83.40
2018-10-19T18:51:37.111Z,82.87
2018-10-19T18:54:06.104Z,87.47
2018-10-19T18:56:34.939Z,85.20
2018-10-19T18:59:03.804Z,86.93
2018-10-19T19:01:32.618Z,84.97
2018-10-19T19:04:01.489Z,87.87
2018-10-19T19:06:30.420Z,83.60
2018-10-19T19:08:59.219Z,86.67
2018-10-19T19:11:28.098Z,90.80
2018-10-19T19:13:56.977Z,120.87
2018-10-19T19:16:29.746Z,120.57
2018-10-19T19:18:58.616Z,116.03
2018-10-19T19:21:27.576Z,132.67
2018-10-19T19:24:01.891Z,129.47
2018-10-19T19:26:30.684Z,131.90
2018-10-19T19:28:59.603Z,106.83
2018-10-19T19:31:28.412Z,95.20
2018-10-19T19:34:02.576Z,90.87
2018-10-19T19:36:31.367Z,92.23
2018-10-19T19:39:00.215Z,93.67
2018-10-19T19:42:37.876Z,90.47
2018-10-19T19:45:06.824Z,84.27
2018-10-19T19:47:41.144Z,89.07
2018-10-19T19:50:10.050Z,85.63
2018-10-19T19:52:38.938Z,92.33
2018-10-19T19:55:07.969Z,82.87
2018-10-19T19:57:36.786Z,83.77
2018-10-19T20:00:06.095Z,84.57
2018-10-19T20:02:35.011Z,82.70
2018-10-19T20:05:04.199Z,80.73
2018-10-19T20:07:32.975Z,83.53
2018-10-19T20:10:01.893Z,80.17
2018-10-19T20:12:30.705Z,84.13
2018-10-19T20:14:59.574Z,80.03
2018-10-19T20:17:28.603Z,77.90
2018-10-19T20:19:57.436Z,79.57
2018-10-19T20:22:26.272Z,82.83
2018-10-19T20:24:55.136Z,81.77
2018-10-19T20:27:23.968Z,77.70
2018-10-19T20:29:52.815Z,78.43
2018-10-19T20:32:21.796Z,79.43
2018-10-19T20:34:50.515Z,81.03
2018-10-19T20:37:19.369Z,80.00
2018-10-19T20:39:48.236Z,83.57
2018-10-19T20:42:17.139Z,79.37
2018-10-19T20:44:45.980Z,78.33
2018-10-19T20:47:14.991Z,75.93
2018-10-19T20:49:43.792Z,83.97
2018-10-19T20:52:12.641Z,82.67
2018-10-19T20:54:41.820Z,80.80
2018-10-19T20:57:10.623Z,81.60
2018-10-19T20:59:39.404Z,79.00
2018-10-19T21:02:08.268Z,85.87
2018-10-19T21:04:37.028Z,80.00
2018-10-19T21:07:05.959Z,86.63
2018-10-19T21:09:34.844Z,92.53
2018-10-19T21:12:03.706Z,100.50
2018-10-19T21:14:32.600Z,169.80
2018-10-19T21:17:02.416Z,88.47
2018-10-19T21:19:31.358Z,87.23
2018-10-19T21:22:00.132Z,87.20
2018-10-19T21:24:29.128Z,85.67
2018-10-19T21:26:58.107Z,87.27
2018-10-19T21:29:26.903Z,83.43
2018-10-19T21:31:55.808Z,84.10
2018-10-19T21:34:24.629Z,78.43
2018-10-19T21:36:53.761Z,75.20
2018-10-19T21:39:22.547Z,77.87
2018-10-19T21:41:51.456Z,82.43
2018-10-19T21:44:21.032Z,84.43
2018-10-19T21:46:50.531Z,80.70
2018-10-19T21:49:19.406Z,76.63
2018-10-19T21:51:49.023Z,76.20
2018-10-19T21:54:18.063Z,77.40
2018-10-19T21:56:46.880Z,81.13
2018-10-19T21:59:17.296Z,76.73
2018-10-19T22:01:46.623Z,81.47
2018-10-19T22:04:15.458Z,78.00
2018-10-19T22:06:45.132Z,76.77
2018-10-19T22:09:14.515Z,84.43
2018-10-19T22:11:43.316Z,77.10
2018-10-19T22:14:12.512Z,85.30
2018-10-19T22:16:41.688Z,79.07
2018-10-19T22:19:11.374Z,79.37
2018-10-19T22:21:40.865Z,79.37
2018-10-19T22:24:10.498Z,94.63
2018-10-19T22:26:39.514Z,81.23
2018-10-19T22:29:09.654Z,91.83
2018-10-19T22:31:38.932Z,80.53
2018-10-19T22:34:07.739Z,80.67
2018-10-19T22:36:37.135Z,81.73
2018-10-19T22:39:07.181Z,83.00
2018-10-19T22:41:36.063Z,95.83
2018-10-19T22:44:06.167Z,85.87
2018-10-19T22:46:36.005Z,78.37
2018-10-19T22:49:05.303Z,83.87
2018-10-19T22:51:35.056Z,86.17
2018-10-19T22:54:03.867Z,82.13
2018-10-19T22:56:33.672Z,83.80
2018-10-19T22:59:03.866Z,95.60
2018-10-19T23:01:32.768Z,93.60
2018-10-19T23:04:01.670Z,94.13
2018-10-19T23:06:31.786Z,94.33
2018-10-19T23:09:00.609Z,103.77
2018-10-19T23:11:29.498Z,102.53
2018-10-19T23:13:58.309Z,99.47
2018-10-19T23:16:28.061Z,93.23
2018-10-19T23:18:57.487Z,94.37
2018-10-19T23:21:27.050Z,91.17
2018-10-19T23:23:55.836Z,96.93
2018-10-19T23:26:25.315Z,96.03
2018-10-19T23:28:54.315Z,101.33
2018-10-19T23:31:23.280Z,94.83
2018-10-19T23:33:52.691Z,93.90
2018-10-19T23:36:21.496Z,99.30
2018-10-19T23:38:50.353Z,99.87
2018-10-19T23:41:19.256Z,96.23
2018-10-19T23:43:48.728Z,91.43
2018-10-19T23:46:17.577Z,96.37
2018-10-19T23:48:47.239Z,113.70
2018-10-19T23:51:16.667Z,107.70
2018-10-19T23:53:45.480Z,103.53
2018-10-19T23:56:14.393Z,100.87
2018-10-19T23:58:43.228Z,105.43
